Time;durP1;ratioP1;P1;durP2;ratioP2;P2;SDS_P1;SDS_P2;PMS_P1;PMS_P2;Temp;Humidity;BMP_temperature;BMP_pressure;BME280_temperature;BME280_humidity;BME280_pressure;Samples;Min_cycle;Max_cycle;Signal;HPM_P1;HPM_P2
2024/02/17 00:02:20;;;;;;;1.00;1.00;;;;;;;;;;5023468;28;20497;-85
2024/02/17 00:04:48;;;;;;;0.70;0.70;;;;;;;;;;5023553;28;20520;-86
2024/02/17 00:07:14;;;;;;;0.70;0.70;;;;;;;;;;5021039;28;20454;-86
2024/02/17 00:09:41;;;;;;;1.07;1.07;;;;;;;;;;5024016;28;20562;-85
2024/02/17 00:12:09;;;;;;;0.70;0.70;;;;;;;;;;5020118;28;20526;-84
2024/02/17 00:14:36;;;;;;;1.00;1.00;;;;;;;;;;5018998;28;20466;-85
2024/02/17 00:17:02;;;;;;;0.80;0.80;;;;;;;;;;5025760;28;21294;-85
2024/02/17 00:19:29;;;;;;;0.83;0.83;;;;;;;;;;5026803;28;20486;-85
2024/02/17 00:21:56;;;;;;;0.90;0.90;;;;;;;;;;5020545;28;20454;-85
2024/02/17 00:24:23;;;;;;;0.73;0.73;;;;;;;;;;5022268;28;20522;-85
2024/02/17 00:26:49;;;;;;;0.73;0.73;;;;;;;;;;5023360;28;20459;-85
2024/02/17 00:29:16;;;;;;;0.80;0.80;;;;;;;;;;5023456;28;20485;-85
2024/02/17 00:31:43;;;;;;;0.80;0.80;;;;;;;;;;5015882;28;20450;-85
2024/02/17 00:34:09;;;;;;;1.23;1.23;;;;;;;;;;5023463;28;21158;-84
2024/02/17 00:36:35;;;;;;;0.90;0.90;;;;;;;;;;5020638;28;20493;-85
2024/02/17 00:39:04;;;;;;;2.23;2.13;;;;;;;;;;5030999;28;20485;-85
2024/02/17 00:41:30;;;;;;;1.73;1.63;;;;;;;;;;5032051;28;20501;-85
2024/02/17 00:43:57;;;;;;;0.90;0.90;;;;;;;;;;5019907;28;20510;-84
2024/02/17 00:46:23;;;;;;;3.53;3.37;;;;;;;;;;5023996;28;20513;-85
2024/02/17 00:48:50;;;;;;;2.03;1.93;;;;;;;;;;5019545;28;20522;-86
2024/02/17 00:51:16;;;;;;;0.90;0.90;;;;;;;;;;5022074;28;20451;-86
2024/02/17 00:53:43;;;;;;;2.50;2.40;;;;;;;;;;5024677;28;20462;-86
2024/02/17 00:56:13;;;;;;;1.03;1.03;;;;;;;;;;5019399;28;20447;-85
2024/02/17 00:58:40;;;;;;;0.93;0.93;;;;;;;;;;5025898;28;20451;-85
2024/02/17 01:01:06;;;;;;;1.23;1.17;;;;;;;;;;5024893;28;20601;-85
2024/02/17 01:03:34;;;;;;;0.87;0.87;;;;;;;;;;5022345;28;20535;-84
2024/02/17 01:06:03;;;;;;;0.70;0.70;;;;;;;;;;5019997;28;20451;-85
2024/02/17 01:08:29;;;;;;;0.70;0.70;;;;;;;;;;5018648;28;20450;-85
2024/02/17 01:10:55;;;;;;;1.87;1.77;;;;;;;;;;5021072;28;20540;-86
2024/02/17 01:13:24;;;;;;;0.97;0.97;;;;;;;;;;5030849;28;20460;-85
2024/02/17 01:15:50;;;;;;;1.30;1.30;;;;;;;;;;5024206;28;21107;-85
2024/02/17 01:18:16;;;;;;;0.87;0.87;;;;;;;;;;5025167;28;20459;-85
2024/02/17 01:20:43;;;;;;;1.00;1.00;;;;;;;;;;5015833;28;20515;-86
2024/02/17 01:23:09;;;;;;;1.23;1.23;;;;;;;;;;5017260;28;20458;-86
2024/02/17 01:25:36;;;;;;;0.80;0.80;;;;;;;;;;5028464;28;20478;-87
2024/02/17 01:28:02;;;;;;;1.03;1.03;;;;;;;;;;5025797;28;20478;-85
2024/02/17 01:30:30;;;;;;;0.70;0.70;;;;;;;;;;5027349;28;20961;-86
2024/02/17 01:32:56;;;;;;;0.87;0.87;;;;;;;;;;5027008;28;20566;-85
2024/02/17 01:35:23;;;;;;;0.80;0.80;;;;;;;;;;5022590;28;20489;-85
2024/02/17 01:37:49;;;;;;;0.80;0.80;;;;;;;;;;5029330;28;20457;-85
2024/02/17 01:40:17;;;;;;;2.93;2.80;;;;;;;;;;5031326;28;20576;-85
2024/02/17 01:42:43;;;;;;;1.47;1.47;;;;;;;;;;5027288;28;20486;-85
2024/02/17 01:45:11;;;;;;;0.80;0.80;;;;;;;;;;5024472;28;20464;-85
2024/02/17 01:47:39;;;;;;;0.70;0.70;;;;;;;;;;5022217;28;20454;-85
2024/02/17 01:50:05;;;;;;;1.00;1.00;;;;;;;;;;5021317;28;20469;-85
2024/02/17 01:52:32;;;;;;;0.80;0.80;;;;;;;;;;5037504;28;20490;-85
2024/02/17 01:54:58;;;;;;;1.10;1.10;;;;;;;;;;5027707;28;20500;-85
2024/02/17 01:57:24;;;;;;;1.10;1.10;;;;;;;;;;5027276;28;20535;-85
2024/02/17 01:59:52;;;;;;;0.60;0.60;;;;;;;;;;5034574;28;20596;-85
2024/02/17 02:02:18;;;;;;;0.90;0.90;;;;;;;;;;5016778;28;20526;-83
2024/02/17 02:04:46;;;;;;;1.33;1.33;;;;;;;;;;5023547;28;20529;-85
2024/02/17 02:07:12;;;;;;;0.63;0.63;;;;;;;;;;5028194;28;20505;-85
2024/02/17 02:09:39;;;;;;;1.20;1.20;;;;;;;;;;5029872;28;20545;-85
2024/02/17 02:12:05;;;;;;;0.90;0.90;;;;;;;;;;5024099;28;20534;-85
2024/02/17 02:14:32;;;;;;;1.17;1.17;;;;;;;;;;5020656;28;21017;-86
2024/02/17 02:16:59;;;;;;;1.00;1.00;;;;;;;;;;5027839;28;20520;-86
2024/02/17 02:19:25;;;;;;;1.10;1.10;;;;;;;;;;5024383;28;20975;-86
2024/02/17 02:21:53;;;;;;;2.03;1.93;;;;;;;;;;5023632;28;20502;-84
2024/02/17 02:24:20;;;;;;;1.40;1.40;;;;;;;;;;5024493;28;20468;-87
2024/02/17 02:26:47;;;;;;;1.13;1.13;;;;;;;;;;5024979;28;20457;-85
2024/02/17 02:29:14;;;;;;;1.20;1.20;;;;;;;;;;5024059;28;20570;-87
2024/02/17 02:31:41;;;;;;;1.27;1.27;;;;;;;;;;5031389;28;20454;-86
2024/02/17 02:34:07;;;;;;;3.17;2.87;;;;;;;;;;5027820;28;20464;-87
2024/02/17 02:36:33;;;;;;;1.10;1.10;;;;;;;;;;5028087;28;20485;-85
2024/02/17 02:39:00;;;;;;;3.03;2.83;;;;;;;;;;5029450;28;20446;-84
2024/02/17 02:41:26;;;;;;;1.30;1.30;;;;;;;;;;5021679;28;20494;-85
2024/02/17 02:43:54;;;;;;;1.30;1.30;;;;;;;;;;5024996;28;20513;-85
2024/02/17 02:46:20;;;;;;;3.23;3.10;;;;;;;;;;5030221;28;20484;-84
2024/02/17 02:48:47;;;;;;;1.83;1.77;;;;;;;;;;5024112;28;20466;-85
2024/02/17 02:51:15;;;;;;;1.20;1.20;;;;;;;;;;5019449;28;20451;-86
2024/02/17 02:53:42;;;;;;;1.30;1.30;;;;;;;;;;5021918;28;21237;-86
2024/02/17 02:56:09;;;;;;;1.50;1.50;;;;;;;;;;5022490;28;20446;-86
2024/02/17 02:58:36;;;;;;;1.20;1.20;;;;;;;;;;5026605;28;20501;-86
2024/02/17 03:01:04;;;;;;;1.70;1.67;;;;;;;;;;5029142;28;20501;-86
2024/02/17 03:03:31;;;;;;;1.40;1.40;;;;;;;;;;5029277;28;21516;-85
2024/02/17 03:05:57;;;;;;;1.40;1.40;;;;;;;;;;5022382;28;20463;-86
2024/02/17 03:08:24;;;;;;;1.60;1.60;;;;;;;;;;5023789;28;20478;-86
2024/02/17 03:10:50;;;;;;;1.30;1.30;;;;;;;;;;5031581;28;20464;-86
2024/02/17 03:13:17;;;;;;;2.00;1.93;;;;;;;;;;5025818;28;20505;-86
2024/02/17 03:15:43;;;;;;;2.20;2.10;;;;;;;;;;5027582;28;20486;-86
2024/02/17 03:18:11;;;;;;;1.40;1.40;;;;;;;;;;5022300;28;20452;-85
2024/02/17 03:20:37;;;;;;;1.33;1.33;;;;;;;;;;5025612;28;20486;-86
2024/02/17 03:23:04;;;;;;;1.33;1.33;;;;;;;;;;5030037;28;20463;-86
2024/02/17 03:25:30;;;;;;;1.47;1.47;;;;;;;;;;5020292;28;20501;-86
2024/02/17 03:27:56;;;;;;;1.50;1.50;;;;;;;;;;5031515;28;20449;-86
2024/02/17 03:30:23;;;;;;;1.60;1.60;;;;;;;;;;5028048;28;20517;-86
2024/02/17 03:32:49;;;;;;;1.53;1.53;;;;;;;;;;5023179;28;20497;-84
2024/02/17 03:35:17;;;;;;;1.37;1.37;;;;;;;;;;5029359;28;20534;-85
2024/02/17 03:37:43;;;;;;;0.90;0.90;;;;;;;;;;5025744;28;20999;-85
2024/02/17 03:40:11;;;;;;;0.90;0.90;;;;;;;;;;5019104;28;20455;-84
2024/02/17 03:42:37;;;;;;;1.40;1.40;;;;;;;;;;5024478;28;20469;-85
2024/02/17 03:45:03;;;;;;;1.23;1.23;;;;;;;;;;5017442;28;20478;-86
2024/02/17 03:47:30;;;;;;;1.20;1.20;;;;;;;;;;5024870;28;20486;-85
2024/02/17 03:49:56;;;;;;;1.00;1.00;;;;;;;;;;5020334;28;20490;-85
2024/02/17 03:52:24;;;;;;;3.27;3.07;;;;;;;;;;5024887;28;20479;-85
2024/02/17 03:54:50;;;;;;;1.30;1.30;;;;;;;;;;5021772;28;20442;-86
2024/02/17 03:57:19;;;;;;;2.27;2.17;;;;;;;;;;5027043;28;20553;-86
2024/02/17 03:59:46;;;;;;;1.50;1.50;;;;;;;;;;5023264;28;21248;-85
2024/02/17 04:02:12;;;;;;;1.27;1.27;;;;;;;;;;5022081;28;20491;-86
2024/02/17 04:04:40;;;;;;;4.37;4.03;;;;;;;;;;5025438;28;20546;-86
2024/02/17 04:07:06;;;;;;;1.60;1.60;;;;;;;;;;5015827;28;20502;-86
2024/02/17 04:09:34;;;;;;;1.33;1.33;;;;;;;;;;5025592;28;20487;-85
2024/02/17 04:12:01;;;;;;;1.20;1.20;;;;;;;;;;5019976;28;20508;-86
2024/02/17 04:14:27;;;;;;;1.53;1.53;;;;;;;;;;5019710;28;20509;-86
2024/02/17 04:16:53;;;;;;;1.37;1.37;;;;;;;;;;5020103;28;20537;-86
2024/02/17 04:19:20;;;;;;;1.50;1.50;;;;;;;;;;5021890;28;20461;-85
2024/02/17 04:21:47;;;;;;;4.10;3.80;;;;;;;;;;5020229;28;20490;-85
2024/02/17 04:24:13;;;;;;;1.93;1.83;;;;;;;;;;5020553;28;20462;-86
2024/02/17 04:26:41;;;;;;;2.17;2.07;;;;;;;;;;5022047;28;20477;-85
2024/02/17 04:29:07;;;;;;;1.93;1.83;;;;;;;;;;5024111;28;20453;-85
2024/02/17 04:31:34;;;;;;;1.40;1.40;;;;;;;;;;5020075;28;20448;-85
2024/02/17 04:34:00;;;;;;;1.33;1.33;;;;;;;;;;5024609;28;20489;-86
2024/02/17 04:36:29;;;;;;;1.20;1.20;;;;;;;;;;5020451;28;20448;-86
2024/02/17 04:38:55;;;;;;;1.20;1.20;;;;;;;;;;5019948;28;20459;-85
2024/02/17 04:41:21;;;;;;;2.20;2.10;;;;;;;;;;5020140;28;20510;-85
2024/02/17 04:43:49;;;;;;;1.90;1.80;;;;;;;;;;5022188;28;20816;-86
2024/02/17 04:46:16;;;;;;;1.23;1.23;;;;;;;;;;5017574;28;20501;-85
2024/02/17 04:48:42;;;;;;;1.80;1.73;;;;;;;;;;5027733;28;20468;-85
2024/02/17 04:51:09;;;;;;;1.73;1.63;;;;;;;;;;5019878;28;20517;-86
2024/02/17 04:53:35;;;;;;;1.00;1.00;;;;;;;;;;5024428;28;20522;-86
2024/02/17 04:56:02;;;;;;;0.83;0.83;;;;;;;;;;5025303;28;20545;-85
2024/02/17 04:58:28;;;;;;;4.20;3.20;;;;;;;;;;5027593;28;20481;-86
2024/02/17 05:00:56;;;;;;;1.80;1.70;;;;;;;;;;5032483;28;20620;-86
2024/02/17 05:03:23;;;;;;;1.40;1.40;;;;;;;;;;5027797;28;20458;-86
2024/02/17 05:05:49;;;;;;;1.70;1.67;;;;;;;;;;5025488;28;20859;-86
2024/02/17 05:08:16;;;;;;;1.17;1.17;;;;;;;;;;5021131;28;20455;-86
2024/02/17 05:10:42;;;;;;;2.80;2.60;;;;;;;;;;5019219;28;20455;-86
2024/02/17 05:13:09;;;;;;;1.40;1.40;;;;;;;;;;5018978;28;20551;-86
2024/02/17 05:15:35;;;;;;;1.00;1.00;;;;;;;;;;5024208;28;20521;-86
2024/02/17 05:18:03;;;;;;;1.63;1.63;;;;;;;;;;5027975;28;20486;-86
2024/02/17 05:20:30;;;;;;;1.90;1.80;;;;;;;;;;5022814;28;20954;-86
2024/02/17 05:22:56;;;;;;;1.80;1.70;;;;;;;;;;5011638;28;20549;-85
2024/02/17 05:25:22;;;;;;;1.13;1.13;;;;;;;;;;5031241;28;20562;-86
2024/02/17 05:27:49;;;;;;;1.57;1.57;;;;;;;;;;5019133;28;21284;-87
2024/02/17 05:30:14;;;;;;;1.10;1.10;;;;;;;;;;5021895;28;20496;-87
2024/02/17 05:32:41;;;;;;;1.20;1.20;;;;;;;;;;5013323;28;20494;-86
2024/02/17 05:35:09;;;;;;;1.27;1.27;;;;;;;;;;5022300;28;20227;-86
2024/02/17 05:37:35;;;;;;;1.20;1.20;;;;;;;;;;5026199;28;20458;-87
2024/02/17 05:40:05;;;;;;;1.03;1.03;;;;;;;;;;5012842;28;20454;-86
2024/02/17 05:42:32;;;;;;;1.20;1.20;;;;;;;;;;5016433;28;20516;-86
2024/02/17 05:44:58;;;;;;;1.00;1.00;;;;;;;;;;5023600;28;20541;-86
2024/02/17 05:47:25;;;;;;;1.20;1.20;;;;;;;;;;5023210;28;20917;-85
2024/02/17 05:49:51;;;;;;;1.30;1.30;;;;;;;;;;5020406;28;20477;-85
2024/02/17 05:52:19;;;;;;;1.07;1.07;;;;;;;;;;5016980;28;20542;-85
2024/02/17 05:54:45;;;;;;;1.10;1.10;;;;;;;;;;5019127;28;21743;-86
2024/02/17 05:57:12;;;;;;;1.27;1.27;;;;;;;;;;5016944;28;20458;-86
2024/02/17 05:59:38;;;;;;;1.17;1.17;;;;;;;;;;5020111;28;20497;-86
2024/02/17 06:02:05;;;;;;;1.17;1.17;;;;;;;;;;5022211;28;20522;-87
2024/02/17 06:04:31;;;;;;;1.80;1.70;;;;;;;;;;5023114;28;20540;-85
2024/02/17 06:06:57;;;;;;;1.17;1.17;;;;;;;;;;5025174;28;20575;-85
2024/02/17 06:09:25;;;;;;;1.10;1.10;;;;;;;;;;5023545;28;20495;-85
2024/02/17 06:11:52;;;;;;;1.07;1.07;;;;;;;;;;5025881;28;20467;-85
2024/02/17 06:14:18;;;;;;;0.97;0.97;;;;;;;;;;5024538;28;20478;-85
2024/02/17 06:16:44;;;;;;;2.23;2.03;;;;;;;;;;5024176;28;20533;-85
2024/02/17 06:21:55;;;;;;;2.70;2.60;;;;;;;;;;5027520;28;20721;-84
2024/02/17 06:24:22;;;;;;;1.10;1.10;;;;;;;;;;5027027;28;20463;-83
2024/02/17 06:26:49;;;;;;;16.67;3.30;;;;;;;;;;5027323;28;20442;-85
2024/02/17 06:29:16;;;;;;;2.20;2.10;;;;;;;;;;5034024;28;20491;-85
2024/02/17 06:31:42;;;;;;;3.20;2.90;;;;;;;;;;5038829;28;20707;-85
2024/02/17 06:34:09;;;;;;;1.37;1.37;;;;;;;;;;5039908;28;20440;-85
2024/02/17 06:36:36;;;;;;;1.90;1.80;;;;;;;;;;5036541;28;20479;-85
2024/02/17 06:39:03;;;;;;;1.30;1.30;;;;;;;;;;5035208;28;20446;-85
2024/02/17 06:41:29;;;;;;;2.87;2.13;;;;;;;;;;5036525;28;20506;-85
2024/02/17 06:43:57;;;;;;;1.60;1.57;;;;;;;;;;5023467;28;20541;-85
2024/02/17 06:46:23;;;;;;;1.50;1.50;;;;;;;;;;5024531;28;20494;-86
2024/02/17 06:48:50;;;;;;;1.40;1.40;;;;;;;;;;5021808;28;20506;-84
2024/02/17 06:51:17;;;;;;;1.33;1.33;;;;;;;;;;5022544;28;20462;-86
2024/02/17 06:53:44;;;;;;;1.30;1.30;;;;;;;;;;5021531;28;20473;-86
2024/02/17 06:56:10;;;;;;;1.33;1.33;;;;;;;;;;5022037;28;20459;-86
2024/02/17 06:58:37;;;;;;;1.40;1.40;;;;;;;;;;5022510;28;20464;-85
2024/02/17 07:01:05;;;;;;;3.53;2.07;;;;;;;;;;5015597;28;20983;-86
2024/02/17 07:03:31;;;;;;;3.30;3.20;;;;;;;;;;5021320;28;20451;-85
2024/02/17 07:05:57;;;;;;;1.30;1.30;;;;;;;;;;5005227;28;20562;-85
2024/02/17 07:08:24;;;;;;;1.30;1.30;;;;;;;;;;5015643;28;21166;-85
2024/02/17 07:10:50;;;;;;;1.43;1.43;;;;;;;;;;5023624;28;20518;-84
2024/02/17 07:13:17;;;;;;;1.60;1.60;;;;;;;;;;5007924;28;20498;-85
2024/02/17 07:15:45;;;;;;;1.80;1.80;;;;;;;;;;5022182;28;20540;-85
2024/02/17 07:18:14;;;;;;;1.40;1.40;;;;;;;;;;5013695;28;20473;-86
2024/02/17 07:20:41;;;;;;;2.17;1.70;;;;;;;;;;5029827;28;20458;-86
2024/02/17 07:23:07;;;;;;;2.57;2.47;;;;;;;;;;5019720;28;20495;-86
2024/02/17 07:25:35;;;;;;;1.20;1.20;;;;;;;;;;5025943;28;20485;-86
2024/02/17 07:28:02;;;;;;;2.30;2.20;;;;;;;;;;5027264;28;20512;-85
2024/02/17 07:30:29;;;;;;;1.00;1.00;;;;;;;;;;5018723;28;20501;-87
2024/02/17 07:32:56;;;;;;;1.10;1.10;;;;;;;;;;5010754;28;20443;-88
2024/02/17 07:35:24;;;;;;;1.50;1.50;;;;;;;;;;5037515;28;20481;-85
2024/02/17 07:37:50;;;;;;;1.40;1.40;;;;;;;;;;5022399;28;21033;-88
2024/02/17 07:40:17;;;;;;;1.60;1.50;;;;;;;;;;5012534;28;20543;-86
2024/02/17 07:42:43;;;;;;;1.70;1.70;;;;;;;;;;5020262;28;20490;-86
2024/02/17 07:45:10;;;;;;;4.03;3.83;;;;;;;;;;5017492;28;20470;-86
2024/02/17 07:47:36;;;;;;;2.00;1.90;;;;;;;;;;5021642;28;20526;-87
2024/02/17 07:50:04;;;;;;;1.20;1.20;;;;;;;;;;5020658;28;20510;-86
2024/02/17 07:52:32;;;;;;;1.60;1.60;;;;;;;;;;5020690;28;20455;-86
2024/02/17 07:54:58;;;;;;;2.00;1.90;;;;;;;;;;5019109;28;20479;-86
2024/02/17 07:57:25;;;;;;;1.60;1.60;;;;;;;;;;5025163;28;20462;-86
2024/02/17 07:59:51;;;;;;;1.80;1.80;;;;;;;;;;5019920;28;20950;-87
2024/02/17 08:02:17;;;;;;;3.33;3.20;;;;;;;;;;5035534;28;20570;-86
2024/02/17 08:04:44;;;;;;;1.90;1.80;;;;;;;;;;5013628;28;20453;-87
2024/02/17 08:07:10;;;;;;;2.30;2.20;;;;;;;;;;5017588;28;20493;-86
2024/02/17 08:09:38;;;;;;;2.63;2.53;;;;;;;;;;5023927;28;20461;-87
2024/02/17 08:12:05;;;;;;;2.17;2.07;;;;;;;;;;5020189;28;20455;-85
2024/02/17 08:14:32;;;;;;;2.40;2.30;;;;;;;;;;5022202;28;20450;-86
2024/02/17 08:16:59;;;;;;;2.30;2.20;;;;;;;;;;5019431;28;20509;-86
2024/02/17 08:19:25;;;;;;;2.20;2.10;;;;;;;;;;5022394;28;20459;-86
2024/02/17 08:21:52;;;;;;;2.10;2.00;;;;;;;;;;5020011;28;20483;-86
2024/02/17 08:24:18;;;;;;;1.60;1.60;;;;;;;;;;5021510;28;20517;-85
2024/02/17 08:26:46;;;;;;;1.87;1.77;;;;;;;;;;5027770;28;20474;-86
2024/02/17 08:29:12;;;;;;;2.73;2.63;;;;;;;;;;5026102;28;20500;-87
2024/02/17 08:31:39;;;;;;;4.20;4.00;;;;;;;;;;5031564;28;20481;-86
2024/02/17 08:34:05;;;;;;;3.97;3.87;;;;;;;;;;5016512;28;20481;-86
2024/02/17 08:36:31;;;;;;;2.80;2.70;;;;;;;;;;5020186;28;20966;-84
2024/02/17 08:38:58;;;;;;;3.40;3.30;;;;;;;;;;5019974;28;20486;-85
2024/02/17 08:41:24;;;;;;;2.90;2.80;;;;;;;;;;5025753;28;21034;-87
2024/02/17 08:43:52;;;;;;;2.80;2.70;;;;;;;;;;5015824;28;20590;-86
2024/02/17 08:46:19;;;;;;;2.87;2.77;;;;;;;;;;5028672;28;20503;-85
2024/02/17 08:48:45;;;;;;;2.80;2.70;;;;;;;;;;5012038;28;20455;-84
2024/02/17 08:51:11;;;;;;;3.10;3.00;;;;;;;;;;5018774;28;20888;-86
2024/02/17 08:53:38;;;;;;;3.30;3.20;;;;;;;;;;5008366;28;20514;-87
2024/02/17 08:56:04;;;;;;;3.50;3.40;;;;;;;;;;5021042;28;20482;-86
2024/02/17 08:58:31;;;;;;;4.00;3.90;;;;;;;;;;5027502;28;20489;-87
2024/02/17 09:00:58;;;;;;;3.73;3.63;;;;;;;;;;5015908;28;20510;-85
2024/02/17 09:03:25;;;;;;;5.87;5.27;;;;;;;;;;5027169;28;20596;-87
2024/02/17 09:05:51;;;;;;;5.53;5.33;;;;;;;;;;5018945;28;20955;-88
2024/02/17 09:08:18;;;;;;;5.10;4.90;;;;;;;;;;5019435;28;20885;-88
2024/02/17 09:10:44;;;;;;;5.00;4.80;;;;;;;;;;5016598;28;20470;-87
2024/02/17 09:13:10;;;;;;;5.50;5.30;;;;;;;;;;5018476;28;20489;-83
2024/02/17 09:15:37;;;;;;;6.00;5.80;;;;;;;;;;5019059;28;21069;-86
2024/02/17 09:18:05;;;;;;;6.90;6.70;;;;;;;;;;5014279;28;20462;-85
2024/02/17 09:20:31;;;;;;;6.67;6.47;;;;;;;;;;5017127;28;20504;-85
2024/02/17 09:22:57;;;;;;;11.97;7.23;;;;;;;;;;5013033;28;20514;-86
2024/02/17 09:25:24;;;;;;;6.40;6.20;;;;;;;;;;5015251;28;20492;-90
2024/02/17 09:27:50;;;;;;;5.53;5.33;;;;;;;;;;5028399;28;20872;-87
2024/02/17 09:30:17;;;;;;;5.17;4.97;;;;;;;;;;5020124;28;20502;-86
2024/02/17 09:32:43;;;;;;;5.47;5.27;;;;;;;;;;5019397;28;21034;-86
2024/02/17 09:35:11;;;;;;;6.07;5.87;;;;;;;;;;5030441;28;20519;-84
2024/02/17 09:37:38;;;;;;;7.07;6.87;;;;;;;;;;5021572;28;20450;-84
2024/02/17 09:40:06;;;;;;;7.00;6.80;;;;;;;;;;5020659;28;20457;-86
2024/02/17 09:42:32;;;;;;;6.13;5.93;;;;;;;;;;5018425;28;20483;-84
2024/02/17 09:44:59;;;;;;;5.90;5.70;;;;;;;;;;5020998;28;20481;-81
2024/02/17 09:47:26;;;;;;;6.20;6.00;;;;;;;;;;5024587;28;20554;-82
2024/02/17 09:49:53;;;;;;;6.57;6.37;;;;;;;;;;5019901;28;20455;-83
2024/02/17 09:52:21;;;;;;;5.73;5.53;;;;;;;;;;5031034;28;20465;-83
2024/02/17 09:54:47;;;;;;;6.80;6.60;;;;;;;;;;5022414;28;20568;-85
2024/02/17 09:57:17;;;;;;;7.57;7.27;;;;;;;;;;5019912;28;20483;-83
2024/02/17 09:59:43;;;;;;;6.57;6.37;;;;;;;;;;5011538;28;20517;-85
2024/02/17 10:02:09;;;;;;;6.57;6.37;;;;;;;;;;5025559;28;20483;-83
2024/02/17 10:04:36;;;;;;;6.97;6.77;;;;;;;;;;5016113;28;20907;-85
2024/02/17 10:07:03;;;;;;;6.57;6.37;;;;;;;;;;5016073;28;20514;-89
2024/02/17 10:09:31;;;;;;;9.47;9.07;;;;;;;;;;5023874;28;20465;-84
2024/02/17 10:11:58;;;;;;;6.90;6.63;;;;;;;;;;5019296;28;20525;-80
2024/02/17 10:14:26;;;;;;;6.80;6.60;;;;;;;;;;5018687;28;20865;-77
2024/02/17 10:16:57;;;;;;;6.50;6.30;;;;;;;;;;5030520;28;20564;-79
2024/02/17 10:19:23;;;;;;;5.23;5.03;;;;;;;;;;5018714;28;20942;-79
2024/02/17 10:21:49;;;;;;;9.90;9.50;;;;;;;;;;5025586;28;20467;-83
2024/02/17 10:24:16;;;;;;;5.17;4.97;;;;;;;;;;5021460;28;20525;-80
2024/02/17 10:26:44;;;;;;;5.83;5.53;;;;;;;;;;5021148;28;20474;-84
2024/02/17 10:29:16;;;;;;;3.53;3.43;;;;;;;;;;5021035;28;20747;-83
2024/02/17 10:31:43;;;;;;;4.60;4.40;;;;;;;;;;5021089;28;20439;-85
2024/02/17 10:34:12;;;;;;;3.73;3.63;;;;;;;;;;5020329;28;21031;-86
2024/02/17 10:36:39;;;;;;;4.33;4.13;;;;;;;;;;5022685;28;21226;-85
2024/02/17 10:39:07;;;;;;;3.70;3.60;;;;;;;;;;5031764;28;20545;-81
2024/02/17 10:41:34;;;;;;;4.00;3.90;;;;;;;;;;5024145;28;20463;-82
2024/02/17 10:44:02;;;;;;;3.93;3.73;;;;;;;;;;5025585;28;20490;-84
2024/02/17 10:46:29;;;;;;;3.73;3.63;;;;;;;;;;5021883;28;20478;-79
2024/02/17 10:48:58;;;;;;;4.20;4.00;;;;;;;;;;5020299;28;20482;-81
2024/02/17 10:51:25;;;;;;;5.50;5.27;;;;;;;;;;5021587;28;20474;-86
2024/02/17 10:53:56;;;;;;;5.47;5.17;;;;;;;;;;5019840;28;20545;-83
2024/02/17 10:56:23;;;;;;;3.80;3.70;;;;;;;;;;5021654;28;21256;-83
2024/02/17 10:58:50;;;;;;;3.73;3.63;;;;;;;;;;5023131;28;20451;-84
2024/02/17 11:01:19;;;;;;;3.90;3.80;;;;;;;;;;5024627;28;20473;-85
2024/02/17 11:03:46;;;;;;;4.20;4.00;;;;;;;;;;5024215;28;20501;-78
2024/02/17 11:06:14;;;;;;;4.50;4.30;;;;;;;;;;5021407;28;20483;-77
2024/02/17 11:08:40;;;;;;;5.20;5.00;;;;;;;;;;5022921;28;20478;-78
2024/02/17 11:11:24;;;;;;;3.97;3.83;;;;;;;;;;5022772;28;20513;-77
2024/02/17 11:13:51;;;;;;;5.00;4.80;;;;;;;;;;5019633;28;20450;-78
2024/02/17 11:16:19;;;;;;;5.10;4.90;;;;;;;;;;5025497;28;20584;-77
2024/02/17 11:18:46;;;;;;;4.97;4.77;;;;;;;;;;5036931;28;20454;-77
2024/02/17 11:21:13;;;;;;;3.80;3.70;;;;;;;;;;5021127;28;20891;-78
2024/02/17 11:23:40;;;;;;;3.23;3.13;;;;;;;;;;5027185;28;20522;-78
2024/02/17 11:26:08;;;;;;;4.73;4.53;;;;;;;;;;5021647;28;20490;-77
2024/02/17 11:28:34;;;;;;;3.90;3.80;;;;;;;;;;5019556;28;20451;-76
2024/02/17 11:31:06;;;;;;;4.67;4.47;;;;;;;;;;5027584;28;20664;-77
2024/02/17 11:33:34;;;;;;;4.00;3.90;;;;;;;;;;5016608;28;20455;-77
2024/02/17 11:36:01;;;;;;;4.60;4.40;;;;;;;;;;5019092;28;20533;-76
2024/02/17 11:38:29;;;;;;;3.10;3.00;;;;;;;;;;5030882;28;20463;-76
2024/02/17 11:40:56;;;;;;;3.40;3.30;;;;;;;;;;5019106;28;20458;-75
2024/02/17 11:43:24;;;;;;;5.20;5.00;;;;;;;;;;5016041;28;20552;-76
2024/02/17 11:45:51;;;;;;;4.80;4.60;;;;;;;;;;5011793;28;20525;-76
2024/02/17 11:48:18;;;;;;;4.83;4.63;;;;;;;;;;5014375;28;20451;-75
2024/02/17 11:50:46;;;;;;;4.97;4.77;;;;;;;;;;5017174;28;20462;-76
2024/02/17 11:53:14;;;;;;;5.33;5.13;;;;;;;;;;5017613;28;20507;-77
2024/02/17 11:55:41;;;;;;;4.73;4.53;;;;;;;;;;5018438;28;21040;-77
2024/02/17 11:58:09;;;;;;;4.77;4.57;;;;;;;;;;5013109;28;20466;-77
2024/02/17 12:00:38;;;;;;;4.77;4.57;;;;;;;;;;5017546;28;20466;-77
2024/02/17 12:03:05;;;;;;;4.07;3.97;;;;;;;;;;5014153;28;20475;-77
2024/02/17 12:05:31;;;;;;;3.30;3.20;;;;;;;;;;5022357;28;21261;-77
2024/02/17 12:07:59;;;;;;;3.80;3.70;;;;;;;;;;5030974;28;20529;-76
2024/02/17 12:10:25;;;;;;;3.97;3.87;;;;;;;;;;5017867;28;21184;-76
2024/02/17 12:12:52;;;;;;;3.80;3.70;;;;;;;;;;5022058;28;20518;-76
2024/02/17 12:15:19;;;;;;;4.00;3.90;;;;;;;;;;5018172;28;20463;-76
2024/02/17 12:17:45;;;;;;;3.20;3.10;;;;;;;;;;5019411;28;20481;-77
2024/02/17 12:20:12;;;;;;;3.10;3.00;;;;;;;;;;5014810;28;20832;-77
2024/02/17 12:22:39;;;;;;;2.90;2.80;;;;;;;;;;5027574;28;20478;-76
2024/02/17 12:25:08;;;;;;;2.80;2.70;;;;;;;;;;5018338;28;21104;-76
2024/02/17 12:27:35;;;;;;;4.80;4.60;;;;;;;;;;5021737;28;20560;-77
2024/02/17 12:30:01;;;;;;;5.20;4.90;;;;;;;;;;5015381;28;20454;-77
2024/02/17 12:32:27;;;;;;;4.83;4.63;;;;;;;;;;5030694;28;20459;-77
2024/02/17 12:34:54;;;;;;;4.83;4.63;;;;;;;;;;5020924;28;20506;-76
2024/02/17 12:37:20;;;;;;;4.13;4.03;;;;;;;;;;5021691;28;21032;-77
2024/02/17 12:39:49;;;;;;;4.97;4.77;;;;;;;;;;5017951;28;20454;-77
2024/02/17 12:42:16;;;;;;;3.50;3.40;;;;;;;;;;5023986;28;20474;-77
2024/02/17 12:44:43;;;;;;;3.43;3.33;;;;;;;;;;5021982;28;20529;-77
2024/02/17 12:47:14;;;;;;;6.33;6.03;;;;;;;;;;5026945;28;20519;-76
2024/02/17 12:49:41;;;;;;;3.97;3.87;;;;;;;;;;5019000;28;20545;-78
2024/02/17 12:52:08;;;;;;;5.23;5.03;;;;;;;;;;5015132;28;20459;-78
2024/02/17 12:54:34;;;;;;;5.20;5.00;;;;;;;;;;5012761;28;20455;-77
2024/02/17 12:57:01;;;;;;;5.07;4.87;;;;;;;;;;5023464;28;20501;-77
2024/02/17 12:59:31;;;;;;;5.27;5.07;;;;;;;;;;5028321;28;20485;-78
2024/02/17 13:01:57;;;;;;;5.37;5.17;;;;;;;;;;5027672;28;20497;-77
2024/02/17 13:04:24;;;;;;;5.10;4.90;;;;;;;;;;5020848;28;20559;-77
2024/02/17 13:06:50;;;;;;;5.07;4.87;;;;;;;;;;5011243;28;20471;-77
2024/02/17 13:09:17;;;;;;;5.50;5.30;;;;;;;;;;5019080;28;20447;-77
2024/02/17 13:11:43;;;;;;;4.70;4.50;;;;;;;;;;5009328;28;20459;-75
2024/02/17 13:14:10;;;;;;;5.43;5.23;;;;;;;;;;5017206;28;20489;-77
2024/02/17 13:16:37;;;;;;;4.17;4.00;;;;;;;;;;5013426;28;21410;-77
2024/02/17 13:19:04;;;;;;;3.63;3.53;;;;;;;;;;5015922;28;20967;-77
2024/02/17 13:21:31;;;;;;;5.10;4.87;;;;;;;;;;5023314;28;20554;-77
2024/02/17 13:23:57;;;;;;;4.03;3.93;;;;;;;;;;5014992;28;20562;-76
2024/02/17 13:26:24;;;;;;;3.43;3.33;;;;;;;;;;5021467;28;20478;-76
2024/02/17 13:28:50;;;;;;;4.20;4.10;;;;;;;;;;5018335;28;20451;-76
2024/02/17 13:31:19;;;;;;;4.50;4.30;;;;;;;;;;5021011;28;20523;-77
2024/02/17 13:33:47;;;;;;;5.40;5.20;;;;;;;;;;5020018;28;20498;-78
2024/02/17 13:36:14;;;;;;;4.83;4.63;;;;;;;;;;5020845;28;20466;-78
2024/02/17 13:38:40;;;;;;;5.17;4.97;;;;;;;;;;5023259;28;21003;-77
2024/02/17 13:41:06;;;;;;;5.27;5.07;;;;;;;;;;5023184;28;21015;-77
2024/02/17 13:43:33;;;;;;;5.77;5.57;;;;;;;;;;5011664;28;20610;-77
2024/02/17 13:45:59;;;;;;;5.50;5.30;;;;;;;;;;5020276;28;20450;-77
2024/02/17 13:48:25;;;;;;;5.70;5.50;;;;;;;;;;5018068;28;20911;-77
2024/02/17 13:50:53;;;;;;;5.60;5.40;;;;;;;;;;5007088;28;20527;-77
2024/02/17 13:53:20;;;;;;;5.30;5.10;;;;;;;;;;5021516;28;20478;-77
2024/02/17 13:55:46;;;;;;;5.27;5.07;;;;;;;;;;5018571;28;20452;-77
2024/02/17 13:58:13;;;;;;;5.57;5.37;;;;;;;;;;5017035;28;20497;-78
2024/02/17 14:00:39;;;;;;;5.67;5.47;;;;;;;;;;5017231;28;20463;-77
2024/02/17 14:03:06;;;;;;;5.10;4.90;;;;;;;;;;5017668;28;20485;-77
2024/02/17 14:05:32;;;;;;;5.77;5.57;;;;;;;;;;5014278;28;20995;-77
2024/02/17 14:08:00;;;;;;;5.53;5.33;;;;;;;;;;5022732;28;20454;-76
2024/02/17 14:10:26;;;;;;;5.43;5.23;;;;;;;;;;5022517;28;20540;-78
2024/02/17 14:12:53;;;;;;;4.83;4.63;;;;;;;;;;5021423;28;20443;-77
2024/02/17 14:15:20;;;;;;;4.90;4.70;;;;;;;;;;5020703;28;21308;-75
2024/02/17 14:17:47;;;;;;;4.97;4.77;;;;;;;;;;5017468;28;20459;-77
2024/02/17 14:20:13;;;;;;;5.50;5.30;;;;;;;;;;5020016;28;20541;-74
2024/02/17 14:22:39;;;;;;;3.57;3.47;;;;;;;;;;5019814;28;20518;-76
2024/02/17 14:25:08;;;;;;;4.00;3.90;;;;;;;;;;5019349;28;20503;-76
2024/02/17 14:27:35;;;;;;;3.70;3.60;;;;;;;;;;5012521;28;20562;-77
2024/02/17 14:30:04;;;;;;;5.30;5.10;;;;;;;;;;5017637;28;20464;-77
2024/02/17 14:32:30;;;;;;;3.77;3.67;;;;;;;;;;5019287;28;20455;-77
2024/02/17 14:34:56;;;;;;;3.37;3.27;;;;;;;;;;5021899;28;20970;-77
2024/02/17 14:37:23;;;;;;;4.37;4.20;;;;;;;;;;5020030;28;20510;-77
2024/02/17 14:39:49;;;;;;;3.20;3.10;;;;;;;;;;5021362;28;20577;-77
2024/02/17 14:42:17;;;;;;;3.43;3.33;;;;;;;;;;5021459;28;20519;-77
2024/02/17 14:44:44;;;;;;;3.50;3.40;;;;;;;;;;5021366;28;21204;-76